• Join FlightAware (Why Join?)
  • Login
  • US Flag GB Flag 
21:27 EDT


 

Airport Tracker/Info


-or-


 

Live Flight TrackerFlight Track Log ✈ DAL6034 ✈ 21-Apr-2013 ✈ KMHT - KLGA

Flight Track Log - Related Links

Times and Time Zones

All times are in EDT time to prevent confusion due to time zone crossing. See the DAL6034 flight status page for this flight to view local times or setup timezone preferences in your user account.

Time Position Orientation Groundspeed Altitude Reporting Facility
EDT Latitude Longitude Course Direction KTS MPH feet Rate Location/Type
17:11 42.9500 -71.4333 266° West 161 185 1,100  Level KA90
17:12 42.9775 -71.4553 330° Northwest 198 228 2,300 2,160 Climbing Boston Center
17:13 43.0175 -71.4858 331° Northwest 235 270 4,500 2,580 Climbing Boston Center
17:14 43.0639 -71.5592 311° West 251 289 7,500 2,640 Climbing Boston Center
17:15 42.6483 -71.7705 236° Southwest  Level Estimated
17:15 43.0997 -71.6239 307° West 251 289 9,800  Level Boston Center
17:16 42.5770 -71.8537 231° Southwest  Level Estimated
17:16 43.1297 -71.7261 292° West 251 289 11,200  Level Boston Center
17:17 42.5697 -71.9809 266° West  Level FlightAware Approximate
17:17 43.0633 -71.8008 219° Southwest 276 318 12,000  Level Boston Center
17:18 42.9742 -71.8925 217° Southwest 333 383 13,300 1,380 Climbing Boston Center
17:19 42.8933 -71.9781 218° Southwest 376 433 14,800 1,320 Climbing Boston Center
17:20 42.8250 -72.0833 229° Southwest 376 433 16,000 1,260 Climbing Boston Center
17:21 42.7564 -72.1883 228° Southwest 368 423 17,400 900 Climbing Boston Center
17:22 42.6983 -72.2792 229° Southwest 362 417 17,900 300 Climbing Boston Center
17:23 42.6297 -72.3836 228° Southwest 362 417 18,000  Climbing Boston Center
17:24 42.5608 -72.4908 229° Southwest 369 425 18,000  Level Boston Center
17:25 42.4900 -72.5978 228° Southwest 374 430 18,000  Level Boston Center
17:26 42.4208 -72.6989 227° Southwest 379 436 18,000  Level Boston Center
17:27 42.3414 -72.8192 228° Southwest 384 442 18,000  Level Boston Center
17:28 42.2786 -72.9142 228° Southwest 384 442 18,000  Level Boston Center
17:29 42.2031 -73.0286 228° Southwest 384 442 18,000  Level Boston Center
17:30 42.1314 -73.1344 228° Southwest 384 442 18,000  Level Boston Center
17:31 42.0642 -73.2397 229° Southwest 384 442 18,000  Level Boston Center
17:32 42.0008 -73.3342 228° Southwest 384 442 18,000  Level Boston Center
17:33 41.9125 -73.4389 221° Southwest 384 442 18,000 -720 Level Boston Center
17:34 41.8267 -73.4931 205° Southwest 384 442 16,600 -1,560 Descending Boston Center
17:35 41.7239 -73.5583 205° Southwest 379 436 14,900 -1,620 Descending Boston Center
17:36 41.6419 -73.6122 206° Southwest 374 430 13,400 -1,620 Descending Boston Center
17:37 41.5167 -73.6833 203° Southwest 358 412 11,400 -1,500 Descending New York TRACON
17:38 41.4500 -73.7333 209° Southwest 312 359 10,100 -1,200 Descending New York TRACON
17:39 41.3667 -73.7833 204° Southwest 280 322 9,000 -600 Descending New York TRACON
17:40 41.3000 -73.7500 159° South 277 319 9,000  Level New York TRACON
17:41 41.2333 -73.7000 151° Southeast 273 314 9,000 -660 Level New York TRACON
17:42 41.1667 -73.6500 151° Southeast 270 311 7,700 -1,500 Descending New York TRACON
17:43 41.1000 -73.6500 180° South 272 313 6,100 -1,500 Descending New York TRACON
17:44 41.0333 -73.6667 191° South 255 293 4,900 -1,080 Descending New York TRACON
17:45 40.9833 -73.7167 217° Southwest 217 250 4,000 -900 Descending New York TRACON
17:46 40.9333 -73.7500 207° Southwest 196 226 3,200 -900 Descending New York TRACON